createdAt,value
2018-06-04T04:10:25.699Z,75
2018-06-04T04:10:51.113Z,80
2018-06-04T04:11:16.684Z,80
2018-06-04T04:11:42.209Z,80
2018-06-04T04:12:07.682Z,80
2018-06-04T04:12:33.164Z,80
2018-06-04T04:12:58.600Z,80
2018-06-04T04:13:24.052Z,85
2018-06-04T04:13:49.568Z,85
2018-06-04T04:14:14.995Z,85
2018-06-04T04:14:40.495Z,85
2018-06-04T04:15:05.959Z,85
2018-06-04T04:15:31.401Z,85
2018-06-04T04:15:56.874Z,85
2018-06-04T04:16:22.341Z,85
2018-06-04T04:16:47.858Z,85
2018-06-04T04:17:13.279Z,85
2018-06-04T04:17:38.730Z,85
2018-06-04T04:18:04.197Z,90
2018-06-04T04:18:29.649Z,90
2018-06-04T04:18:55.150Z,90
2018-06-04T04:19:20.677Z,90
2018-06-04T04:19:46.093Z,90
2018-06-04T04:20:11.576Z,90
2018-06-04T04:20:37.025Z,90
2018-06-04T04:21:02.489Z,90
2018-06-04T04:21:28.049Z,95
2018-06-04T04:21:53.430Z,95
2018-06-04T04:22:18.925Z,100
2018-06-04T04:22:44.389Z,95
2018-06-04T04:23:09.818Z,95
2018-06-04T04:23:35.301Z,100
2018-06-04T04:24:00.768Z,100
2018-06-04T04:24:26.279Z,100
2018-06-04T04:24:51.762Z,100
2018-06-04T04:25:17.208Z,100
2018-06-04T04:25:42.645Z,105
2018-06-04T04:26:08.115Z,105
2018-06-04T04:26:33.625Z,105
2018-06-04T04:26:59.046Z,105
2018-06-04T04:27:24.493Z,105
2018-06-04T04:27:50.096Z,110
2018-06-04T04:28:15.425Z,110
2018-06-04T04:28:40.930Z,110
2018-06-04T04:29:06.390Z,110
2018-06-04T04:29:31.882Z,115
2018-06-04T04:29:57.398Z,115
2018-06-04T04:30:22.821Z,115
2018-06-04T04:30:48.388Z,115
2018-06-04T04:31:13.870Z,115
2018-06-04T04:31:39.305Z,120
2018-06-04T04:32:04.763Z,120
2018-06-04T04:32:30.231Z,120
2018-06-04T04:32:55.713Z,120
2018-06-04T04:33:21.179Z,120
2018-06-04T04:33:46.634Z,125
2018-06-04T04:34:12.152Z,125
2018-06-04T04:34:37.686Z,125
2018-06-04T04:35:03.175Z,125
2018-06-04T04:35:28.594Z,125
2018-06-04T04:35:54.053Z,125
2018-06-04T04:36:19.537Z,125
2018-06-04T04:36:44.992Z,130
2018-06-04T04:37:10.413Z,125
2018-06-04T04:37:35.865Z,130
2018-06-04T04:38:01.345Z,130
2018-06-04T04:38:26.823Z,130
2018-06-04T04:38:52.270Z,130
2018-06-04T04:39:17.774Z,130
2018-06-04T04:39:43.263Z,135
2018-06-04T04:40:08.742Z,135
2018-06-04T04:40:34.298Z,135
2018-06-04T04:40:59.740Z,135
2018-06-04T04:41:25.233Z,140
2018-06-04T04:41:50.699Z,140
2018-06-04T04:42:16.096Z,140
2018-06-04T04:42:41.657Z,140
2018-06-04T04:43:07.080Z,140
2018-06-04T04:43:32.541Z,140
2018-06-04T04:43:58.005Z,150
2018-06-04T04:44:23.467Z,145
2018-06-04T04:44:48.900Z,145
2018-06-04T04:45:14.424Z,145
2018-06-04T04:45:39.813Z,145
2018-06-04T04:46:05.281Z,150
2018-06-04T04:46:30.822Z,150
2018-06-04T04:46:56.329Z,150
2018-06-04T04:47:21.769Z,150
2018-06-04T04:47:47.212Z,150
2018-06-04T04:48:12.667Z,150
2018-06-04T04:48:38.276Z,155
2018-06-04T04:49:03.668Z,155
2018-06-04T04:49:29.175Z,155
2018-06-04T04:49:54.680Z,155
2018-06-04T04:50:20.150Z,155
2018-06-04T04:50:45.659Z,155
2018-06-04T04:51:11.091Z,160
2018-06-04T04:51:36.618Z,160
2018-06-04T04:52:02.047Z,160
2018-06-04T04:52:27.544Z,160
2018-06-04T04:52:52.974Z,160
2018-06-04T04:53:18.460Z,160
2018-06-04T04:53:43.948Z,165
2018-06-04T04:54:09.437Z,165
2018-06-04T04:54:34.912Z,165
2018-06-04T04:55:00.373Z,165
2018-06-04T04:55:25.891Z,165
2018-06-04T04:55:51.340Z,170
2018-06-04T04:56:16.813Z,165
2018-06-04T04:56:42.221Z,170
2018-06-04T04:57:07.666Z,170
2018-06-04T04:57:33.153Z,170
2018-06-04T04:57:58.587Z,170
2018-06-04T04:58:24.095Z,170
2018-06-04T04:58:49.573Z,170
2018-06-04T04:59:15.053Z,175
2018-06-04T04:59:40.526Z,175
2018-06-04T05:00:06.014Z,175
2018-06-04T05:01:19.815Z,175
2018-06-04T05:01:45.314Z,175
2018-06-04T05:02:10.715Z,180
2018-06-04T05:02:36.193Z,180
2018-06-04T05:03:01.649Z,180
2018-06-04T05:03:27.105Z,180
2018-06-04T05:03:52.614Z,180
2018-06-04T05:04:18.104Z,180
2018-06-04T05:04:43.535Z,180
2018-06-04T05:05:09.017Z,185
2018-06-04T05:05:34.518Z,185
2018-06-04T05:06:00.312Z,185
2018-06-04T05:06:26.028Z,185
2018-06-04T05:06:51.662Z,185
2018-06-04T05:07:17.335Z,195
2018-06-04T05:07:43.478Z,190
2018-06-04T05:08:09.113Z,190
2018-06-04T05:08:34.740Z,190
2018-06-04T05:09:00.750Z,195
2018-06-04T05:09:26.394Z,195
2018-06-04T05:09:52.160Z,195
2018-06-04T05:10:17.734Z,195
2018-06-04T05:10:43.379Z,200
2018-06-04T05:11:09.053Z,200
2018-06-04T05:11:34.479Z,200
2018-06-04T05:11:59.975Z,200
2018-06-04T05:12:25.420Z,205
2018-06-04T05:12:51.214Z,205
2018-06-04T05:13:16.642Z,205
2018-06-04T05:13:42.152Z,205
2018-06-04T05:14:07.624Z,205
2018-06-04T05:14:33.085Z,210
2018-06-04T05:14:58.648Z,210
2018-06-04T05:15:24.156Z,210
2018-06-04T05:15:49.562Z,210
2018-06-04T05:16:15.057Z,210
2018-06-04T05:16:40.552Z,215
2018-06-04T05:17:06.032Z,215
2018-06-04T05:17:31.653Z,215
2018-06-04T05:17:57.035Z,215
2018-06-04T05:18:22.558Z,215
2018-06-04T05:18:48.040Z,215
2018-06-04T05:19:13.501Z,220
2018-06-04T05:19:38.987Z,220
2018-06-04T05:20:04.493Z,220
2018-06-04T05:20:29.956Z,220
2018-06-04T05:20:55.388Z,220
2018-06-04T05:21:20.865Z,220
2018-06-04T05:21:46.410Z,220
2018-06-04T05:22:11.879Z,220
2018-06-04T05:22:37.367Z,225
2018-06-04T05:23:02.772Z,225
2018-06-04T05:24:11.467Z,225
2018-06-04T05:24:36.923Z,230
2018-06-04T05:25:55.840Z,230
2018-06-04T05:26:21.342Z,230
2018-06-04T05:26:46.784Z,230
2018-06-04T05:27:12.240Z,235
2018-06-04T05:27:37.690Z,235
2018-06-04T05:28:03.206Z,235
2018-06-04T05:28:28.650Z,235
2018-06-04T05:28:54.168Z,235
2018-06-04T05:29:19.646Z,240
2018-06-04T05:29:45.134Z,240
2018-06-04T05:30:10.687Z,240
2018-06-04T05:30:36.110Z,240
2018-06-04T05:31:01.603Z,240
2018-06-04T05:31:27.084Z,240
2018-06-04T05:31:52.642Z,245
2018-06-04T05:32:18.034Z,245
2018-06-04T05:32:43.520Z,245
2018-06-04T05:33:09.009Z,245
2018-06-04T05:33:34.555Z,245
2018-06-04T05:34:00.030Z,245
2018-06-04T05:34:25.498Z,245
2018-06-04T05:34:50.994Z,250
2018-06-04T05:35:16.460Z,250
2018-06-04T05:35:41.972Z,250
2018-06-04T05:36:07.386Z,250
2018-06-04T05:36:32.907Z,250
2018-06-04T05:36:58.371Z,250
2018-06-04T05:37:23.861Z,250
2018-06-04T05:37:49.278Z,255
2018-06-04T05:38:14.827Z,255
2018-06-04T05:38:40.300Z,260
2018-06-04T05:39:05.747Z,260
2018-06-04T05:39:31.201Z,255
2018-06-04T05:39:56.638Z,255
2018-06-04T05:40:22.158Z,255
2018-06-04T05:40:47.663Z,260
2018-06-04T05:41:13.065Z,260
2018-06-04T05:41:38.608Z,260
2018-06-04T05:42:04.041Z,260
2018-06-04T05:42:29.539Z,260
2018-06-04T05:42:54.972Z,260
2018-06-04T05:43:20.510Z,260
2018-06-04T05:43:45.933Z,265
2018-06-04T05:44:11.428Z,265
2018-06-04T05:44:36.919Z,265
2018-06-04T05:45:02.393Z,265
2018-06-04T05:45:27.835Z,265
2018-06-04T05:45:53.365Z,275
2018-06-04T05:46:18.903Z,270
2018-06-04T05:46:44.350Z,270
2018-06-04T05:47:09.835Z,270
2018-06-04T05:47:35.275Z,270
2018-06-04T05:48:00.721Z,270
2018-06-04T05:48:26.222Z,270
2018-06-04T05:48:51.667Z,270
2018-06-04T05:49:17.146Z,275
2018-06-04T05:49:42.628Z,275
2018-06-04T05:50:08.081Z,275
2018-06-04T05:50:33.570Z,280
2018-06-04T05:50:59.055Z,280
2018-06-04T05:51:24.525Z,285
2018-06-04T05:51:49.989Z,285
2018-06-04T05:52:15.394Z,290
2018-06-04T05:52:40.893Z,290
2018-06-04T05:53:06.365Z,295
2018-06-04T05:53:31.812Z,300
2018-06-04T05:53:57.356Z,300
2018-06-04T05:54:22.866Z,305
2018-06-04T05:54:48.292Z,305
2018-06-04T05:55:13.793Z,310
2018-06-04T05:55:39.249Z,315
2018-06-04T05:56:04.753Z,315
2018-06-04T05:56:30.179Z,320
2018-06-04T05:56:55.633Z,320
2018-06-04T05:57:21.125Z,325
2018-06-04T05:57:46.604Z,330
2018-06-04T05:58:12.121Z,335
2018-06-04T05:58:37.624Z,335
2018-06-04T05:59:03.032Z,340
2018-06-04T05:59:28.528Z,345
2018-06-04T05:59:54.042Z,355
2018-06-04T06:00:19.519Z,360
2018-06-04T06:00:44.958Z,360
2018-06-04T06:01:10.551Z,365
2018-06-04T06:01:36.030Z,370
2018-06-04T06:02:01.449Z,375
2018-06-04T06:02:26.929Z,380
2018-06-04T06:02:52.442Z,390
2018-06-04T06:03:17.874Z,395
2018-06-04T06:03:43.488Z,400
2018-06-04T06:04:08.887Z,410
2018-06-04T06:04:34.370Z,415
2018-06-04T06:04:59.795Z,425
2018-06-04T06:05:25.334Z,430
2018-06-04T06:05:50.776Z,440
2018-06-04T06:06:16.420Z,440
2018-06-04T06:06:41.869Z,440
2018-06-04T06:07:07.320Z,445
2018-06-04T06:07:32.805Z,450
2018-06-04T06:07:58.278Z,455
2018-06-04T06:08:23.820Z,465
2018-06-04T06:08:49.284Z,475
2018-06-04T06:09:14.797Z,480
2018-06-04T06:09:40.236Z,485
2018-06-04T06:10:05.723Z,490
2018-06-04T06:10:31.235Z,505
2018-06-04T06:10:56.684Z,520
2018-06-04T06:11:22.157Z,530
2018-06-04T06:11:47.638Z,540
2018-06-04T06:12:13.149Z,550
2018-06-04T06:12:38.664Z,570
2018-06-04T06:13:04.169Z,580
2018-06-04T06:13:29.619Z,595
2018-06-04T06:13:55.078Z,625
2018-06-04T06:14:20.555Z,635
2018-06-04T06:14:46.036Z,640
2018-06-04T06:15:11.529Z,655
2018-06-04T06:15:37.054Z,670
2018-06-04T06:16:02.535Z,690
2018-06-04T06:16:28.011Z,705
2018-06-04T06:16:53.510Z,710
2018-06-04T06:17:18.940Z,720
2018-06-04T06:17:44.497Z,725
2018-06-04T06:18:09.943Z,735
2018-06-04T06:18:35.442Z,735
2018-06-04T06:19:00.906Z,750
2018-06-04T06:19:26.357Z,755
2018-06-04T06:19:51.882Z,745
2018-06-04T06:20:17.355Z,730
2018-06-04T06:20:42.805Z,705
2018-06-04T06:21:08.250Z,695
2018-06-04T06:21:33.842Z,690
2018-06-04T06:21:59.181Z,685
2018-06-04T06:22:24.656Z,685
2018-06-04T06:22:50.139Z,685
2018-06-04T06:23:15.617Z,690
2018-06-04T06:23:41.072Z,695
2018-06-04T06:24:06.576Z,700
2018-06-04T06:24:32.087Z,700
2018-06-04T06:24:57.577Z,700
2018-06-04T06:25:23.105Z,705
2018-06-04T06:25:48.462Z,705
2018-06-04T06:26:13.946Z,700
2018-06-04T06:26:39.462Z,705
2018-06-04T06:27:04.903Z,710
2018-06-04T06:27:30.333Z,710
2018-06-04T06:27:55.809Z,710
2018-06-04T06:28:21.277Z,715
2018-06-04T06:28:46.736Z,715
2018-06-04T06:29:12.192Z,735
2018-06-04T06:29:37.685Z,740
2018-06-04T06:30:03.376Z,755
2018-06-04T06:30:28.796Z,755
2018-06-04T06:30:54.145Z,770
2018-06-04T06:31:19.579Z,780
2018-06-04T06:31:45.134Z,780
2018-06-04T06:32:10.599Z,765
2018-06-04T06:32:36.603Z,765
2018-06-04T06:33:01.620Z,770
2018-06-04T06:33:27.093Z,765
2018-06-04T06:33:52.525Z,775
2018-06-04T06:34:18.006Z,785
2018-06-04T06:34:43.502Z,780
2018-06-04T06:35:08.944Z,780
2018-06-04T06:35:34.445Z,775
2018-06-04T06:35:59.921Z,755
2018-06-04T06:36:25.373Z,750
2018-06-04T06:36:50.886Z,750
2018-06-04T06:37:17.977Z,755
2018-06-04T06:37:43.514Z,755
2018-06-04T06:38:08.963Z,775
2018-06-04T06:38:34.446Z,780
2018-06-04T06:38:59.906Z,790
2018-06-04T06:39:25.367Z,785
2018-06-04T06:39:50.899Z,780
2018-06-04T06:40:17.321Z,785
2018-06-04T06:40:42.792Z,780
2018-06-04T06:41:08.250Z,790
2018-06-04T06:41:33.997Z,795
2018-06-04T06:41:59.688Z,805
2018-06-04T06:42:25.048Z,810
2018-06-04T06:42:50.721Z,815
2018-06-04T06:43:16.104Z,815
2018-06-04T06:43:41.570Z,820
2018-06-04T06:44:07.081Z,830
2018-06-04T06:44:32.580Z,840
2018-06-04T06:44:58.103Z,855
2018-06-04T06:45:23.566Z,870
2018-06-04T06:45:49.085Z,885
2018-06-04T06:46:14.502Z,900
2018-06-04T06:46:39.959Z,905
2018-06-04T06:47:05.420Z,880
2018-06-04T06:47:30.977Z,865
2018-06-04T06:47:56.422Z,865
2018-06-04T06:48:22.049Z,865
2018-06-04T06:48:47.497Z,855
2018-06-04T06:49:13.059Z,870
2018-06-04T06:49:38.516Z,865
2018-06-04T06:50:04.371Z,855
2018-06-04T06:50:29.592Z,840
2018-06-04T06:50:55.638Z,840
2018-06-04T06:51:21.549Z,850
2018-06-04T06:51:47.110Z,880
2018-06-04T06:52:12.549Z,895
2018-06-04T06:52:38.115Z,945
2018-06-04T06:53:03.500Z,935
2018-06-04T06:53:29.041Z,870
2018-06-04T06:53:54.556Z,775
2018-06-04T06:54:20.101Z,680
2018-06-04T06:54:45.699Z,580
2018-06-04T06:55:11.206Z,505
2018-06-04T06:55:36.718Z,470
2018-06-04T06:56:02.304Z,445
2018-06-04T06:56:27.843Z,430
2018-06-04T06:56:53.294Z,425
2018-06-04T06:57:18.897Z,415
2018-06-04T06:57:44.279Z,410
2018-06-04T06:58:09.794Z,405
2018-06-04T06:58:35.239Z,400
2018-06-04T06:59:00.692Z,395
2018-06-04T06:59:26.135Z,395
2018-06-04T06:59:51.634Z,385
2018-06-04T07:00:17.077Z,385
2018-06-04T07:00:42.553Z,385
2018-06-04T07:01:08.052Z,380
2018-06-04T07:01:33.495Z,375
2018-06-04T07:01:58.963Z,375
2018-06-04T07:02:24.443Z,370
2018-06-04T07:02:49.897Z,370
2018-06-04T07:03:15.446Z,370
2018-06-04T07:03:40.901Z,365
2018-06-04T07:04:06.345Z,360
2018-06-04T07:04:31.835Z,360
2018-06-04T07:04:57.345Z,355
2018-06-04T07:05:22.816Z,355
2018-06-04T07:05:48.302Z,355
2018-06-04T07:06:13.787Z,350
2018-06-04T07:06:39.250Z,350
2018-06-04T07:07:04.717Z,350
2018-06-04T07:07:30.210Z,350
2018-06-04T07:07:55.696Z,350
2018-06-04T07:08:21.200Z,345
2018-06-04T07:08:46.625Z,345
2018-06-04T07:09:12.126Z,345
2018-06-04T07:09:37.546Z,350
2018-06-04T07:10:03.063Z,345
2018-06-04T07:10:28.527Z,345
2018-06-04T07:10:54.030Z,340
2018-06-04T07:11:19.663Z,340
2018-06-04T07:11:45.055Z,340
2018-06-04T07:12:10.522Z,340
2018-06-04T07:12:36.004Z,340
2018-06-04T07:13:01.616Z,345
2018-06-04T07:13:27.295Z,345
2018-06-04T07:13:52.817Z,345
2018-06-04T07:14:18.370Z,345
2018-06-04T07:14:43.794Z,350
2018-06-04T07:15:10.144Z,345
2018-06-04T07:15:35.960Z,350
2018-06-04T07:16:01.499Z,350
2018-06-04T07:16:26.927Z,350
2018-06-04T07:16:52.468Z,350
2018-06-04T07:17:18.007Z,350
2018-06-04T07:17:43.535Z,350
2018-06-04T07:18:09.115Z,355
2018-06-04T07:18:34.789Z,355
2018-06-04T07:19:00.376Z,355
2018-06-04T07:19:25.776Z,355
2018-06-04T07:19:51.590Z,360
2018-06-04T07:20:16.911Z,360
2018-06-04T07:20:43.350Z,360
2018-06-04T07:21:11.845Z,365
2018-06-04T07:21:37.491Z,365
2018-06-04T07:22:03.610Z,365
2018-06-04T07:22:28.883Z,370
2018-06-04T07:22:54.992Z,375
2018-06-04T07:23:20.496Z,375
2018-06-04T07:23:46.149Z,375
2018-06-04T07:24:11.661Z,375
2018-06-04T07:24:37.425Z,375
2018-06-04T07:25:03.623Z,380
2018-06-04T07:25:28.733Z,385
2018-06-04T07:25:54.832Z,385
2018-06-04T07:26:20.315Z,390
2018-06-04T07:26:46.489Z,395
2018-06-04T07:27:11.479Z,400
2018-06-04T07:27:36.999Z,400
2018-06-04T07:28:02.521Z,415
2018-06-04T07:28:28.126Z,425
2018-06-04T07:28:53.628Z,440
2018-06-04T07:29:19.142Z,460
2018-06-04T07:29:44.656Z,480
2018-06-04T07:30:10.124Z,510
2018-06-04T07:30:35.840Z,540
2018-06-04T07:31:01.174Z,580
2018-06-04T07:31:26.619Z,645
2018-06-04T07:31:52.080Z,710
2018-06-04T07:32:17.616Z,760
2018-06-04T07:32:43.168Z,800
2018-06-04T07:33:08.626Z,825
2018-06-04T07:33:34.096Z,845
2018-06-04T07:33:59.599Z,870
2018-06-04T07:34:25.076Z,880
2018-06-04T07:34:50.632Z,930
2018-06-04T07:35:16.231Z,970
2018-06-04T07:35:41.655Z,985
2018-06-04T07:36:07.086Z,1010
2018-06-04T07:36:32.641Z,1020
2018-06-04T07:36:58.302Z,1045
2018-06-04T07:37:23.681Z,1085
2018-06-04T07:37:49.156Z,1085
2018-06-04T07:38:14.621Z,1095
2018-06-04T07:38:40.201Z,1125
2018-06-04T07:39:05.715Z,1145
2018-06-04T07:39:32.902Z,1150
2018-06-04T07:40:05.877Z,1160
2018-06-04T07:40:28.621Z,1175
2018-06-04T07:40:54.117Z,1190
2018-06-04T07:41:19.607Z,1190
2018-06-04T07:41:45.057Z,1210
2018-06-04T07:42:10.588Z,1250
2018-06-04T07:42:36.022Z,1310
2018-06-04T07:43:01.556Z,1340
2018-06-04T07:43:27.054Z,1375
2018-06-04T07:43:52.533Z,1395
2018-06-04T07:44:20.570Z,1395
2018-06-04T07:44:45.762Z,1380
2018-06-04T07:45:11.307Z,1375
2018-06-04T07:45:36.826Z,1335
2018-06-04T07:46:02.293Z,1295
2018-06-04T07:46:27.732Z,1260
2018-06-04T07:46:53.283Z,1250
2018-06-04T07:47:18.719Z,1250
2018-06-04T07:47:44.180Z,1250
2018-06-04T07:48:09.710Z,1245
2018-06-04T07:48:35.135Z,1255
2018-06-04T07:49:00.603Z,1255
2018-06-04T07:49:26.102Z,1265
2018-06-04T07:49:51.594Z,1270
2018-06-04T07:50:17.070Z,1265
2018-06-04T07:50:42.712Z,1250
2018-06-04T07:51:08.192Z,1235
2018-06-04T07:51:33.706Z,1230
2018-06-04T07:51:59.191Z,1240
2018-06-04T07:52:24.742Z,1245
2018-06-04T07:52:50.172Z,1255
2018-06-04T07:53:15.619Z,1250
2018-06-04T07:53:41.169Z,1250
2018-06-04T07:54:06.619Z,1255
2018-06-04T07:54:32.043Z,1255
2018-06-04T07:54:57.504Z,1245
2018-06-04T07:55:22.971Z,1260
2018-06-04T07:55:48.466Z,1245
2018-06-04T07:56:13.890Z,1255
2018-06-04T07:56:39.420Z,1325
2018-06-04T07:57:04.942Z,1355
2018-06-04T07:57:30.440Z,1370
2018-06-04T07:57:55.884Z,1390
2018-06-04T07:58:21.405Z,1415
2018-06-04T07:58:46.930Z,1490
2018-06-04T07:59:12.429Z,1475
2018-06-04T07:59:38.192Z,1475
2018-06-04T08:00:03.621Z,1440
2018-06-04T08:00:29.164Z,1415
2018-06-04T08:00:54.571Z,1420
2018-06-04T08:01:20.141Z,1465
2018-06-04T08:01:45.656Z,1510
2018-06-04T08:02:11.067Z,1545
2018-06-04T08:02:36.601Z,1535
2018-06-04T08:03:02.113Z,1515
2018-06-04T08:03:27.562Z,1475
2018-06-04T08:03:53.048Z,1440
2018-06-04T08:04:18.537Z,1440
2018-06-04T08:04:44.028Z,1410
2018-06-04T08:05:09.481Z,1410
2018-06-04T08:05:34.942Z,1390
2018-06-04T08:06:00.466Z,1315
2018-06-04T08:06:25.923Z,1300
2018-06-04T08:06:51.380Z,1310
2018-06-04T08:07:16.864Z,1350
2018-06-04T08:07:42.377Z,1450
2018-06-04T08:08:07.816Z,1550
2018-06-04T08:08:33.297Z,1615
2018-06-04T08:08:58.765Z,1625
2018-06-04T08:09:24.249Z,1630
2018-06-04T08:09:49.707Z,1625
2018-06-04T08:10:15.217Z,1480
2018-06-04T08:10:40.802Z,1240
2018-06-04T08:11:06.258Z,955
2018-06-04T08:11:31.661Z,675
2018-06-04T08:11:57.216Z,485
2018-06-04T08:12:22.658Z,420
2018-06-04T08:12:48.199Z,405
2018-06-04T08:13:13.630Z,395
2018-06-04T08:13:39.082Z,390
2018-06-04T08:14:04.563Z,395
2018-06-04T08:14:30.023Z,390
2018-06-04T08:14:55.529Z,390
2018-06-04T08:15:21.003Z,390
2018-06-04T08:15:46.447Z,385
2018-06-04T08:16:11.913Z,390
2018-06-04T08:16:37.382Z,390
2018-06-04T08:17:02.868Z,385
2018-06-04T08:17:28.314Z,385
2018-06-04T08:17:53.832Z,370
2018-06-04T08:18:19.270Z,370
2018-06-04T08:18:44.755Z,365
2018-06-04T08:19:10.304Z,360
2018-06-04T08:19:35.767Z,360
2018-06-04T08:20:01.214Z,355
2018-06-04T08:20:26.747Z,355
2018-06-04T08:20:52.237Z,360
2018-06-04T08:21:17.695Z,360
2018-06-04T08:21:43.204Z,355
2018-06-04T08:22:08.719Z,355
2018-06-04T08:22:34.339Z,355
2018-06-04T08:22:59.784Z,350
2018-06-04T08:23:25.232Z,350
2018-06-04T08:23:50.746Z,350
2018-06-04T08:24:16.168Z,350
2018-06-04T08:24:41.807Z,350
2018-06-04T08:25:07.181Z,350
2018-06-04T08:25:32.788Z,350
2018-06-04T08:27:02.484Z,340
2018-06-04T08:27:27.937Z,345
2018-06-04T08:27:53.426Z,345
2018-06-04T08:28:18.904Z,350
2018-06-04T08:28:44.380Z,345
2018-06-04T08:29:10.120Z,345
2018-06-04T08:29:35.458Z,340
2018-06-04T08:30:01.054Z,335
2018-06-04T08:30:26.525Z,335
2018-06-04T08:30:52.557Z,330
2018-06-04T08:31:18.001Z,330
2018-06-04T08:31:43.721Z,330
2018-06-04T08:32:09.094Z,325
2018-06-04T08:32:35.745Z,325
2018-06-04T08:33:01.261Z,325
2018-06-04T08:33:26.694Z,325
2018-06-04T08:33:52.207Z,325
2018-06-04T08:34:17.662Z,330
2018-06-04T08:34:43.099Z,330
2018-06-04T08:35:08.612Z,330
2018-06-04T08:35:34.120Z,335
2018-06-04T08:35:59.502Z,340
2018-06-04T08:36:26.338Z,345
2018-06-04T08:36:53.469Z,350
2018-06-04T08:37:18.999Z,360
2018-06-04T08:37:44.436Z,360
2018-06-04T08:38:09.958Z,355
2018-06-04T08:38:35.416Z,350
2018-06-04T08:39:00.912Z,350
2018-06-04T08:39:26.355Z,345
2018-06-04T08:39:51.910Z,345
2018-06-04T08:40:17.953Z,335
2018-06-04T08:40:43.647Z,335
2018-06-04T08:41:09.141Z,335
2018-06-04T08:41:34.628Z,335
2018-06-04T08:42:00.107Z,335
2018-06-04T08:42:25.593Z,345
2018-06-04T08:42:51.075Z,340
2018-06-04T08:43:16.522Z,345
2018-06-04T08:43:42.257Z,345
2018-06-04T08:44:07.445Z,350
2018-06-04T08:44:32.955Z,350
2018-06-04T08:44:58.434Z,355
2018-06-04T08:45:23.856Z,355
2018-06-04T08:45:49.406Z,360
2018-06-04T08:46:14.781Z,365
2018-06-04T08:46:40.235Z,365
2018-06-04T08:47:05.690Z,355
2018-06-04T08:47:31.124Z,345
2018-06-04T08:47:56.601Z,340
2018-06-04T08:48:22.077Z,335
2018-06-04T08:48:47.623Z,335
2018-06-04T08:49:13.052Z,330
2018-06-04T08:49:38.529Z,325
2018-06-04T08:50:04.036Z,325
2018-06-04T08:50:29.474Z,325
2018-06-04T08:50:54.982Z,325
2018-06-04T08:51:20.400Z,330
2018-06-04T08:51:45.956Z,325
2018-06-04T08:52:11.323Z,320
2018-06-04T08:52:36.855Z,320
2018-06-04T08:53:02.305Z,320
2018-06-04T08:53:27.840Z,320
2018-06-04T08:53:53.289Z,320
2018-06-04T08:54:18.779Z,320
2018-06-04T08:54:44.246Z,320
2018-06-04T08:55:09.737Z,320
2018-06-04T08:55:35.178Z,315
2018-06-04T08:56:00.714Z,315
2018-06-04T08:56:26.352Z,310
2018-06-04T08:56:51.730Z,310
2018-06-04T08:57:17.206Z,310
2018-06-04T08:57:42.680Z,310
2018-06-04T08:58:08.336Z,310
2018-06-04T08:58:33.801Z,310
2018-06-04T08:58:59.273Z,310
2018-06-04T08:59:24.771Z,310
2018-06-04T08:59:50.250Z,310
2018-06-04T09:00:15.743Z,310
2018-06-04T09:00:41.234Z,315
2018-06-04T09:01:06.738Z,320
2018-06-04T09:01:32.227Z,325
2018-06-04T09:01:57.754Z,325
2018-06-04T09:02:23.320Z,330
2018-06-04T09:02:48.695Z,330
2018-06-04T09:03:14.151Z,330
2018-06-04T09:03:39.856Z,330
2018-06-04T09:04:05.198Z,330
2018-06-04T09:04:30.694Z,330
2018-06-04T09:04:56.301Z,335
2018-06-04T09:05:21.797Z,360
2018-06-04T09:05:47.271Z,375
2018-06-04T09:06:12.831Z,380
2018-06-04T09:06:38.297Z,365
2018-06-04T09:07:03.792Z,340
2018-06-04T09:07:29.363Z,320
2018-06-04T09:07:54.927Z,285
2018-06-04T09:08:20.404Z,275
2018-06-04T09:08:45.903Z,275
2018-06-04T09:09:11.373Z,270
2018-06-04T09:09:36.800Z,275
2018-06-04T09:10:02.322Z,275
2018-06-04T09:10:27.823Z,270
2018-06-04T09:10:53.280Z,275
2018-06-04T09:11:18.764Z,290
2018-06-04T09:11:44.205Z,315
2018-06-04T09:12:09.649Z,310
2018-06-04T09:12:35.146Z,310
2018-06-04T09:13:00.649Z,310
2018-06-04T09:13:26.056Z,310
2018-06-04T09:13:51.549Z,315
2018-06-04T09:14:17.095Z,320
2018-06-04T09:14:42.557Z,325
2018-06-04T09:15:07.993Z,330
2018-06-04T09:15:33.442Z,340
2018-06-04T09:15:58.992Z,340
2018-06-04T09:16:24.469Z,345
2018-06-04T09:16:50.035Z,360
2018-06-04T09:17:15.443Z,375
2018-06-04T09:17:40.918Z,370
2018-06-04T09:18:06.385Z,370
2018-06-04T09:18:31.875Z,370
2018-06-04T09:18:57.362Z,360
2018-06-04T09:19:22.868Z,365
2018-06-04T09:19:48.352Z,370
2018-06-04T09:20:13.836Z,365
2018-06-04T09:20:39.323Z,360
2018-06-04T09:21:04.773Z,350
2018-06-04T09:21:30.215Z,330
2018-06-04T09:21:55.740Z,315
2018-06-04T09:22:21.148Z,295
2018-06-04T09:22:46.681Z,290
2018-06-04T09:23:12.125Z,290
2018-06-04T09:23:37.598Z,295
2018-06-04T09:24:03.128Z,305
2018-06-04T09:24:28.583Z,315
2018-06-04T09:24:54.056Z,330
2018-06-04T09:25:19.490Z,345
2018-06-04T09:25:44.984Z,355
2018-06-04T09:26:10.435Z,335
2018-06-04T09:26:35.914Z,345
2018-06-04T09:27:01.389Z,355
2018-06-04T09:27:26.875Z,360
2018-06-04T09:27:52.435Z,350
2018-06-04T09:28:17.895Z,340
2018-06-04T09:28:43.358Z,325
2018-06-04T09:29:08.870Z,310
2018-06-04T09:29:34.356Z,300
2018-06-04T09:29:59.813Z,290
2018-06-04T09:30:25.340Z,280
2018-06-04T09:30:50.810Z,275
2018-06-04T09:31:16.255Z,275
2018-06-04T09:31:41.796Z,275
2018-06-04T09:32:07.350Z,290
2018-06-04T09:32:32.854Z,310
2018-06-04T09:32:58.337Z,355
2018-06-04T09:33:23.787Z,360
2018-06-04T09:33:49.195Z,360
2018-06-04T09:34:14.754Z,355
2018-06-04T09:34:40.230Z,350
2018-06-04T09:35:05.753Z,345
2018-06-04T09:35:31.195Z,335
2018-06-04T09:35:56.669Z,330
2018-06-04T09:36:22.137Z,330
2018-06-04T09:36:47.544Z,330
2018-06-04T09:37:13.024Z,330
2018-06-04T09:37:38.611Z,325
2018-06-04T09:38:04.125Z,335
2018-06-04T09:38:29.601Z,345
2018-06-04T09:38:55.010Z,365
2018-06-04T09:39:20.544Z,380
2018-06-04T09:39:45.943Z,395
2018-06-04T09:40:11.557Z,425
2018-06-04T09:40:36.991Z,455
2018-06-04T09:41:02.484Z,465
2018-06-04T09:41:27.937Z,470
2018-06-04T09:41:53.394Z,480
2018-06-04T09:42:18.883Z,475
2018-06-04T09:42:44.324Z,475
2018-06-04T09:43:09.771Z,465
2018-06-04T09:43:35.266Z,455
2018-06-04T09:44:00.771Z,455
2018-06-04T09:44:26.242Z,460
2018-06-04T09:44:51.719Z,460
2018-06-04T09:45:17.189Z,455
2018-06-04T09:45:42.664Z,430
2018-06-04T09:46:08.089Z,385
2018-06-04T09:46:33.602Z,355
2018-06-04T09:46:59.204Z,335
2018-06-04T09:47:24.577Z,330
2018-06-04T09:47:50.040Z,325
2018-06-04T09:48:15.474Z,320
2018-06-04T09:48:40.958Z,295
2018-06-04T09:49:06.491Z,300
2018-06-04T09:49:31.982Z,300
2018-06-04T09:49:57.461Z,305
2018-06-04T09:50:22.899Z,305
2018-06-04T09:50:48.323Z,315
2018-06-04T09:51:13.774Z,325
2018-06-04T09:51:39.300Z,325
2018-06-04T09:52:04.706Z,325
2018-06-04T09:52:30.251Z,325
2018-06-04T09:52:55.685Z,325
2018-06-04T09:53:21.175Z,335
2018-06-04T09:53:46.858Z,315
2018-06-04T09:54:12.153Z,315
2018-06-04T09:54:37.638Z,310
2018-06-04T09:55:03.163Z,315
2018-06-04T09:55:28.540Z,295
2018-06-04T09:55:54.098Z,280
2018-06-04T09:56:19.584Z,270
2018-06-04T09:56:45.107Z,265
2018-06-04T09:57:10.526Z,265
2018-06-04T09:57:36.070Z,270
2018-06-04T09:58:01.668Z,275
2018-06-04T09:58:27.089Z,280
2018-06-04T09:58:52.588Z,295
2018-06-04T09:59:18.172Z,310
2018-06-04T09:59:43.643Z,340
2018-06-04T10:00:09.199Z,375
2018-06-04T10:00:34.612Z,400
2018-06-04T10:01:00.227Z,410
2018-06-04T10:01:25.762Z,410
2018-06-04T10:01:51.242Z,395
2018-06-04T10:02:16.762Z,380
2018-06-04T10:02:42.275Z,375
2018-06-04T10:03:07.747Z,370
2018-06-04T10:03:33.145Z,370
2018-06-04T10:03:58.600Z,375
2018-06-04T10:04:24.101Z,380